sensor_id;sensor_type;location;lat;lon;timestamp;pressure;altitude;pressure_sealevel;temperature;humidity
79589;BME280;69067;51.930;4.492;2023-09-08T00:01:58;101608.66;;;29.80;42.85
79589;BME280;69067;51.930;4.492;2023-09-08T00:04:23;101600.63;;;29.78;43.38
79589;BME280;69067;51.930;4.492;2023-09-08T00:06:49;101605.66;;;29.81;42.58
79589;BME280;69067;51.930;4.492;2023-09-08T00:09:15;101627.59;;;29.81;43.42
79589;BME280;69067;51.930;4.492;2023-09-08T00:11:41;101622.28;;;29.86;43.21
79589;BME280;69067;51.930;4.492;2023-09-08T00:14:07;101614.03;;;29.86;42.76
79589;BME280;69067;51.930;4.492;2023-09-08T00:16:33;101599.41;;;29.74;42.94
79589;BME280;69067;51.930;4.492;2023-09-08T00:18:58;101621.44;;;29.86;42.50
79589;BME280;69067;51.930;4.492;2023-09-08T00:21:25;101618.91;;;29.84;42.95
79589;BME280;69067;51.930;4.492;2023-09-08T00:23:54;101623.34;;;29.85;43.15
79589;BME280;69067;51.930;4.492;2023-09-08T00:26:22;101617.34;;;29.76;42.73
79589;BME280;69067;51.930;4.492;2023-09-08T00:28:48;101611.22;;;29.74;42.60
79589;BME280;69067;51.930;4.492;2023-09-08T00:31:14;101631.59;;;29.85;42.82
79589;BME280;69067;51.930;4.492;2023-09-08T00:33:39;101608.72;;;29.73;42.39
79589;BME280;69067;51.930;4.492;2023-09-08T00:36:06;101607.91;;;29.72;43.21
79589;BME280;69067;51.930;4.492;2023-09-08T00:38:32;101611.22;;;29.74;42.79
79589;BME280;69067;51.930;4.492;2023-09-08T00:40:58;101622.59;;;29.78;43.17
79589;BME280;69067;51.930;4.492;2023-09-08T00:43:26;101611.47;;;29.73;43.26
79589;BME280;69067;51.930;4.492;2023-09-08T00:45:54;101622.59;;;29.78;42.49
79589;BME280;69067;51.930;4.492;2023-09-08T00:48:21;101630.13;;;29.83;42.62
79589;BME280;69067;51.930;4.492;2023-09-08T00:50:47;101625.97;;;29.80;43.10
79589;BME280;69067;51.930;4.492;2023-09-08T00:53:13;101623.44;;;29.79;42.36
79589;BME280;69067;51.930;4.492;2023-09-08T00:55:41;101612.78;;;29.70;42.95
79589;BME280;69067;51.930;4.492;2023-09-08T00:58:07;101617.41;;;29.70;43.62
79589;BME280;69067;51.930;4.492;2023-09-08T01:00:33;101618.88;;;29.72;43.33
79589;BME280;69067;51.930;4.492;2023-09-08T01:02:59;101613.00;;;29.69;43.14
79589;BME280;69067;51.930;4.492;2023-09-08T01:05:25;101621.97;;;29.76;43.42
79589;BME280;69067;51.930;4.492;2023-09-08T01:07:53;101604.13;;;29.67;42.56
79589;BME280;69067;51.930;4.492;2023-09-08T01:10:21;101617.09;;;29.78;43.20
79589;BME280;69067;51.930;4.492;2023-09-08T01:12:47;101615.28;;;29.72;42.88
79589;BME280;69067;51.930;4.492;2023-09-08T01:15:13;101614.44;;;29.71;42.68
79589;BME280;69067;51.930;4.492;2023-09-08T01:17:38;101623.03;;;29.75;43.04
79589;BME280;69067;51.930;4.492;2023-09-08T01:20:14;101616.97;;;29.73;42.49
79589;BME280;69067;51.930;4.492;2023-09-08T01:25:29;101606.31;;;29.65;42.50
79589;BME280;69067;51.930;4.492;2023-09-08T01:28:00;101611.78;;;29.65;43.03
79589;BME280;69067;51.930;4.492;2023-09-08T01:30:29;101619.94;;;29.71;42.43
79589;BME280;69067;51.930;4.492;2023-09-08T01:32:58;101622.91;;;29.70;42.92
79589;BME280;69067;51.930;4.492;2023-09-08T01:35:24;101608.44;;;29.63;42.75
79589;BME280;69067;51.930;4.492;2023-09-08T01:37:50;101629.03;;;29.72;42.99
79589;BME280;69067;51.930;4.492;2023-09-08T01:40:16;101606.31;;;29.65;42.44
79589;BME280;69067;51.930;4.492;2023-09-08T01:42:44;101606.31;;;29.65;42.95
79589;BME280;69067;51.930;4.492;2023-09-08T01:45:11;101626.28;;;29.72;42.63
79589;BME280;69067;51.930;4.492;2023-09-08T01:47:37;101609.41;;;29.68;42.34
79589;BME280;69067;51.930;4.492;2023-09-08T01:50:04;101608.44;;;29.63;42.37
79589;BME280;69067;51.930;4.492;2023-09-08T01:52:30;101616.34;;;29.71;42.55
79589;BME280;69067;51.930;4.492;2023-09-08T01:54:55;101613.22;;;29.67;42.76
79589;BME280;69067;51.930;4.492;2023-09-08T01:57:21;101616.34;;;29.71;42.95
79589;BME280;69067;51.930;4.492;2023-09-08T01:59:47;101593.50;;;29.59;42.49
79589;BME280;69067;51.930;4.492;2023-09-08T02:02:13;101608.56;;;29.68;42.34
79589;BME280;69067;51.930;4.492;2023-09-08T02:04:39;101613.84;;;29.69;42.91
79589;BME280;69067;51.930;4.492;2023-09-08T02:07:05;101613.84;;;29.69;42.96
79589;BME280;69067;51.930;4.492;2023-09-08T02:09:33;101599.56;;;29.61;42.65
79589;BME280;69067;51.930;4.492;2023-09-08T02:12:00;101611.31;;;29.68;42.69
79589;BME280;69067;51.930;4.492;2023-09-08T02:14:26;101592.03;;;29.56;43.41
79589;BME280;69067;51.930;4.492;2023-09-08T02:16:53;101595.84;;;29.55;42.55
79589;BME280;69067;51.930;4.492;2023-09-08T02:19:20;101597.09;;;29.59;42.19
79589;BME280;69067;51.930;4.492;2023-09-08T02:21:46;101608.44;;;29.63;42.65
79589;BME280;69067;51.930;4.492;2023-09-08T02:24:12;101595.41;;;29.58;42.59
79589;BME280;69067;51.930;4.492;2023-09-08T02:26:38;101596.00;;;29.60;42.44
79589;BME280;69067;51.930;4.492;2023-09-08T02:29:05;101591.66;;;29.53;42.63
79589;BME280;69067;51.930;4.492;2023-09-08T02:31:30;101600.50;;;29.55;42.55
79589;BME280;69067;51.930;4.492;2023-09-08T02:33:56;101613.69;;;29.64;43.15
79589;BME280;69067;51.930;4.492;2023-09-08T02:36:22;101606.75;;;29.62;42.12
79589;BME280;69067;51.930;4.492;2023-09-08T02:38:52;101595.63;;;29.57;42.53
79589;BME280;69067;51.930;4.492;2023-09-08T02:41:18;101607.59;;;29.62;42.79
79589;BME280;69067;51.930;4.492;2023-09-08T02:43:45;101599.84;;;29.59;42.28
79589;BME280;69067;51.930;4.492;2023-09-08T02:46:11;101605.91;;;29.61;42.00
79589;BME280;69067;51.930;4.492;2023-09-08T02:48:38;101586.63;;;29.50;42.42
79589;BME280;69067;51.930;4.492;2023-09-08T02:51:04;101583.91;;;29.50;42.37
79589;BME280;69067;51.930;4.492;2023-09-08T02:53:29;101575.66;;;29.50;42.64
79589;BME280;69067;51.930;4.492;2023-09-08T02:55:56;101589.66;;;29.60;42.08
79589;BME280;69067;51.930;4.492;2023-09-08T02:58:22;101586.78;;;29.55;42.72
79589;BME280;69067;51.930;4.492;2023-09-08T03:00:48;101575.88;;;29.48;43.01
79589;BME280;69067;51.930;4.492;2023-09-08T03:03:18;101594.56;;;29.58;42.21
79589;BME280;69067;51.930;4.492;2023-09-08T03:05:44;101587.47;;;29.50;42.58
79589;BME280;69067;51.930;4.492;2023-09-08T03:08:10;101581.16;;;29.50;42.42
79589;BME280;69067;51.930;4.492;2023-09-08T03:10:36;101577.78;;;29.48;43.13
79589;BME280;69067;51.930;4.492;2023-09-08T03:13:05;101576.09;;;29.47;42.17
79589;BME280;69067;51.930;4.492;2023-09-08T03:15:31;101586.16;;;29.53;42.53
79589;BME280;69067;51.930;4.492;2023-09-08T03:17:58;101581.50;;;29.53;42.25
79589;BME280;69067;51.930;4.492;2023-09-08T03:20:25;101579.94;;;29.46;42.60
79589;BME280;69067;51.930;4.492;2023-09-08T03:22:53;101582.69;;;29.46;42.24
79589;BME280;69067;51.930;4.492;2023-09-08T03:25:18;101576.38;;;29.45;42.20
79589;BME280;69067;51.930;4.492;2023-09-08T03:27:44;101582.84;;;29.51;42.35
79589;BME280;69067;51.930;4.492;2023-09-08T03:30:10;101575.25;;;29.46;42.53
79589;BME280;69067;51.930;4.492;2023-09-08T03:32:37;101574.91;;;29.43;42.55
79589;BME280;69067;51.930;4.492;2023-09-08T03:35:04;101579.69;;;29.47;42.35
79589;BME280;69067;51.930;4.492;2023-09-08T03:37:34;101573.97;;;29.49;42.56
79589;BME280;69067;51.930;4.492;2023-09-08T03:40:00;101567.72;;;29.42;42.52
79589;BME280;69067;51.930;4.492;2023-09-08T03:42:26;101570.25;;;29.43;42.21
79589;BME280;69067;51.930;4.492;2023-09-08T03:44:52;101575.66;;;29.50;42.58
79589;BME280;69067;51.930;4.492;2023-09-08T03:47:17;101573.13;;;29.48;42.24
79589;BME280;69067;51.930;4.492;2023-09-08T03:49:43;101571.09;;;29.44;42.85
79589;BME280;69067;51.930;4.492;2023-09-08T03:52:09;101556.16;;;29.40;42.58
79589;BME280;69067;51.930;4.492;2023-09-08T03:54:35;101556.16;;;29.40;43.15
79589;BME280;69067;51.930;4.492;2023-09-08T03:57:01;101565.59;;;29.44;42.31
79589;BME280;69067;51.930;4.492;2023-09-08T03:59:26;101574.81;;;29.49;42.57
79589;BME280;69067;51.930;4.492;2023-09-08T04:01:52;101574.19;;;29.47;43.01
79589;BME280;69067;51.930;4.492;2023-09-08T04:04:18;101572.53;;;29.46;42.49
79589;BME280;69067;51.930;4.492;2023-09-08T04:06:45;101573.00;;;29.43;42.51
79589;BME280;69067;51.930;4.492;2023-09-08T04:09:11;101574.06;;;29.42;42.70
79589;BME280;69067;51.930;4.492;2023-09-08T04:11:37;101563.16;;;29.35;42.74
79589;BME280;69067;51.930;4.492;2023-09-08T04:14:03;101564.00;;;29.36;42.74
79589;BME280;69067;51.930;4.492;2023-09-08T04:16:28;101567.13;;;29.40;43.04
79589;BME280;69067;51.930;4.492;2023-09-08T04:18:54;101560.44;;;29.35;42.71
79589;BME280;69067;51.930;4.492;2023-09-08T04:21:20;101559.38;;;29.36;42.98
79589;BME280;69067;51.930;4.492;2023-09-08T04:23:46;101576.81;;;29.42;42.39
79589;BME280;69067;51.930;4.492;2023-09-08T04:26:12;101572.78;;;29.45;42.07
79589;BME280;69067;51.930;4.492;2023-09-08T04:28:38;101559.59;;;29.35;42.27
79589;BME280;69067;51.930;4.492;2023-09-08T04:31:04;101561.69;;;29.33;42.32
79589;BME280;69067;51.930;4.492;2023-09-08T04:33:30;101572.03;;;29.38;42.29
79589;BME280;69067;51.930;4.492;2023-09-08T04:35:56;101563.16;;;29.35;42.52
79589;BME280;69067;51.930;4.492;2023-09-08T04:38:22;101564.84;;;29.36;42.48
79589;BME280;69067;51.930;4.492;2023-09-08T04:40:48;101564.25;;;29.34;42.60
79589;BME280;69067;51.930;4.492;2023-09-08T04:43:13;101564.00;;;29.36;42.65
79589;BME280;69067;51.930;4.492;2023-09-08T04:45:39;101574.50;;;29.39;42.21
79589;BME280;69067;51.930;4.492;2023-09-08T04:48:05;101580.00;;;29.39;42.41
79589;BME280;69067;51.930;4.492;2023-09-08T04:50:31;101589.69;;;29.42;42.11
79589;BME280;69067;51.930;4.492;2023-09-08T04:52:57;101563.22;;;29.29;42.20
79589;BME280;69067;51.930;4.492;2023-09-08T04:55:23;101565.75;;;29.30;42.63
79589;BME280;69067;51.930;4.492;2023-09-08T04:57:49;101569.56;;;29.29;42.58
79589;BME280;69067;51.930;4.492;2023-09-08T05:00:15;101573.75;;;29.32;42.27
79589;BME280;69067;51.930;4.492;2023-09-08T05:02:41;101559.84;;;29.27;42.80
79589;BME280;69067;51.930;4.492;2023-09-08T05:05:07;101580.47;;;29.36;42.31
79589;BME280;69067;51.930;4.492;2023-09-08T05:07:33;101573.34;;;29.28;42.49
79589;BME280;69067;51.930;4.492;2023-09-08T05:09:59;101574.81;;;29.31;42.98
79589;BME280;69067;51.930;4.492;2023-09-08T05:12:25;101567.50;;;29.25;42.99
79589;BME280;69067;51.930;4.492;2023-09-08T05:14:51;101567.88;;;29.28;42.75
79589;BME280;69067;51.930;4.492;2023-09-08T05:17:23;101569.41;;;29.24;42.66
79589;BME280;69067;51.930;4.492;2023-09-08T05:19:49;101581.59;;;29.28;42.59
79589;BME280;69067;51.930;4.492;2023-09-08T05:22:16;101579.47;;;29.30;42.64
79589;BME280;69067;51.930;4.492;2023-09-08T05:24:42;101587.69;;;29.30;42.96
79589;BME280;69067;51.930;4.492;2023-09-08T05:27:08;101584.94;;;29.30;41.86
79589;BME280;69067;51.930;4.492;2023-09-08T05:29:34;101586.44;;;29.26;42.84
79589;BME280;69067;51.930;4.492;2023-09-08T05:32:00;101584.09;;;29.30;42.21
79589;BME280;69067;51.930;4.492;2023-09-08T05:34:26;101588.13;;;29.27;42.37
79589;BME280;69067;51.930;4.492;2023-09-08T05:36:51;101589.81;;;29.28;42.84
79589;BME280;69067;51.930;4.492;2023-09-08T05:39:17;101590.66;;;29.29;42.20
79589;BME280;69067;51.930;4.492;2023-09-08T05:41:45;101594.84;;;29.31;43.08
79589;BME280;69067;51.930;4.492;2023-09-08T05:44:11;101597.34;;;29.33;42.42
79589;BME280;69067;51.930;4.492;2023-09-08T05:46:37;101611.28;;;29.38;42.86
79589;BME280;69067;51.930;4.492;2023-09-08T05:49:02;101602.19;;;29.38;42.88
79589;BME280;69067;51.930;4.492;2023-09-08T05:51:28;101590.22;;;29.32;42.77
79589;BME280;69067;51.930;4.492;2023-09-08T05:53:54;101588.13;;;29.27;42.70
79589;BME280;69067;51.930;4.492;2023-09-08T05:56:20;101591.50;;;29.29;43.06
79589;BME280;69067;51.930;4.492;2023-09-08T05:58:46;101613.63;;;29.34;42.57
79589;BME280;69067;51.930;4.492;2023-09-08T06:01:12;101614.25;;;29.36;42.66
79589;BME280;69067;51.930;4.492;2023-09-08T06:03:38;101617.22;;;29.35;43.03
79589;BME280;69067;51.930;4.492;2023-09-08T06:06:04;101622.75;;;29.47;42.07
79589;BME280;69067;51.930;4.492;2023-09-08T06:08:30;101609.84;;;29.29;42.31
79589;BME280;69067;51.930;4.492;2023-09-08T06:10:55;101627.97;;;29.36;42.70
79589;BME280;69067;51.930;4.492;2023-09-08T06:13:21;101615.56;;;29.27;43.10
79589;BME280;69067;51.930;4.492;2023-09-08T06:15:47;101607.81;;;29.24;42.53
79589;BME280;69067;51.930;4.492;2023-09-08T06:18:13;101614.28;;;29.30;42.61
79589;BME280;69067;51.930;4.492;2023-09-08T06:20:48;101612.59;;;29.29;42.77
79589;BME280;69067;51.930;4.492;2023-09-08T06:23:14;101623.13;;;29.32;42.91
79589;BME280;69067;51.930;4.492;2023-09-08T06:25:41;101616.41;;;29.28;42.74
79589;BME280;69067;51.930;4.492;2023-09-08T06:28:07;101627.34;;;29.34;42.64
79589;BME280;69067;51.930;4.492;2023-09-08T06:30:33;101622.13;;;29.26;42.52
79589;BME280;69067;51.930;4.492;2023-09-08T06:32:59;101614.94;;;29.25;42.81
79589;BME280;69067;51.930;4.492;2023-09-08T06:35:26;101615.19;;;29.24;42.53
79589;BME280;69067;51.930;4.492;2023-09-08T06:37:52;101618.31;;;29.27;42.02
79589;BME280;69067;51.930;4.492;2023-09-08T06:40:18;101609.72;;;29.24;43.36
79589;BME280;69067;51.930;4.492;2023-09-08T06:42:44;101623.56;;;29.29;42.46
79589;BME280;69067;51.930;4.492;2023-09-08T06:45:10;101621.06;;;29.27;43.02
79589;BME280;69067;51.930;4.492;2023-09-08T06:47:35;101611.00;;;29.21;42.70
79589;BME280;69067;51.930;4.492;2023-09-08T06:50:01;101615.88;;;29.19;43.10
79589;BME280;69067;51.930;4.492;2023-09-08T06:52:27;101620.69;;;29.24;42.85
79589;BME280;69067;51.930;4.492;2023-09-08T06:54:53;101633.56;;;29.23;43.12
79589;BME280;69067;51.930;4.492;2023-09-08T06:57:18;101632.88;;;29.28;43.17
79589;BME280;69067;51.930;4.492;2023-09-08T06:59:47;101632.03;;;29.27;43.14
79589;BME280;69067;51.930;4.492;2023-09-08T07:02:13;101617.53;;;29.20;43.36
79589;BME280;69067;51.930;4.492;2023-09-08T07:04:38;101626.41;;;29.22;42.86
79589;BME280;69067;51.930;4.492;2023-09-08T07:07:04;101627.00;;;29.24;43.32
79589;BME280;69067;51.930;4.492;2023-09-08T07:09:34;101624.03;;;29.26;43.09
79589;BME280;69067;51.930;4.492;2023-09-08T07:12:01;101623.03;;;29.20;43.25
79589;BME280;69067;51.930;4.492;2023-09-08T07:14:27;101630.34;;;29.26;43.17
79589;BME280;69067;51.930;4.492;2023-09-08T07:16:52;101629.75;;;29.24;43.40
79589;BME280;69067;51.930;4.492;2023-09-08T07:19:18;101614.19;;;29.18;43.21
79589;BME280;69067;51.930;4.492;2023-09-08T07:21:44;101638.56;;;29.26;42.98
79589;BME280;69067;51.930;4.492;2023-09-08T07:24:10;101641.56;;;29.25;42.93
79589;BME280;69067;51.930;4.492;2023-09-08T07:26:36;101643.22;;;29.26;43.10
79589;BME280;69067;51.930;4.492;2023-09-08T07:29:01;101629.81;;;29.18;42.78
79589;BME280;69067;51.930;4.492;2023-09-08T07:31:27;101625.41;;;29.17;43.33
79589;BME280;69067;51.930;4.492;2023-09-08T07:33:53;101631.72;;;29.17;43.39
79589;BME280;69067;51.930;4.492;2023-09-08T07:36:19;101648.50;;;29.27;43.24
79589;BME280;69067;51.930;4.492;2023-09-08T07:38:45;101643.69;;;29.23;43.44
79589;BME280;69067;51.930;4.492;2023-09-08T07:41:11;101640.47;;;29.26;43.53
79589;BME280;69067;51.930;4.492;2023-09-08T07:43:37;101626.84;;;29.19;43.40
79589;BME280;69067;51.930;4.492;2023-09-08T07:46:06;101623.72;;;29.16;43.74
79589;BME280;69067;51.930;4.492;2023-09-08T07:48:32;101641.31;;;29.26;43.88
79589;BME280;69067;51.930;4.492;2023-09-08T07:50:58;101637.50;;;29.27;44.36
79589;BME280;69067;51.930;4.492;2023-09-08T07:53:28;101641.31;;;29.26;44.04
79589;BME280;69067;51.930;4.492;2023-09-08T07:55:55;101620.13;;;29.15;44.11
79589;BME280;69067;51.930;4.492;2023-09-08T07:58:21;101641.31;;;29.26;43.87
79589;BME280;69067;51.930;4.492;2023-09-08T08:00:47;101637.38;;;29.22;44.06
79589;BME280;69067;51.930;4.492;2023-09-08T08:03:13;101630.41;;;29.20;44.07
79589;BME280;69067;51.930;4.492;2023-09-08T08:05:39;101626.69;;;29.14;43.86
79589;BME280;69067;51.930;4.492;2023-09-08T08:08:05;101630.06;;;29.16;44.44
79589;BME280;69067;51.930;4.492;2023-09-08T08:10:32;101621.66;;;29.11;44.19
79589;BME280;69067;51.930;4.492;2023-09-08T08:12:58;101621.41;;;29.13;44.56
79589;BME280;69067;51.930;4.492;2023-09-08T08:15:35;101626.69;;;29.14;44.16
79589;BME280;69067;51.930;4.492;2023-09-08T08:18:04;101619.50;;;29.13;44.76
79589;BME280;69067;51.930;4.492;2023-09-08T08:20:30;101638.44;;;29.21;43.95
79589;BME280;69067;51.930;4.492;2023-09-08T08:23:04;101640.09;;;29.22;44.31
79589;BME280;69067;51.930;4.492;2023-09-08T08:25:30;101640.94;;;29.23;44.03
79589;BME280;69067;51.930;4.492;2023-09-08T08:27:56;101637.59;;;29.21;43.98
79589;BME280;69067;51.930;4.492;2023-09-08T08:30:24;101635.47;;;29.23;44.66
79589;BME280;69067;51.930;4.492;2023-09-08T08:32:50;101625.41;;;29.17;44.68
79589;BME280;69067;51.930;4.492;2023-09-08T08:35:17;101647.88;;;29.25;44.45
79589;BME280;69067;51.930;4.492;2023-09-08T08:37:43;101622.88;;;29.15;44.41
79589;BME280;69067;51.930;4.492;2023-09-08T08:40:12;101642.16;;;29.27;44.28
79589;BME280;69067;51.930;4.492;2023-09-08T08:42:40;101629.00;;;29.17;44.53
79589;BME280;69067;51.930;4.492;2023-09-08T08:45:06;101635.06;;;29.19;43.92
79589;BME280;69067;51.930;4.492;2023-09-08T08:47:33;101642.22;;;29.20;44.55
79589;BME280;69067;51.930;4.492;2023-09-08T08:50:00;101643.47;;;29.24;44.30
79589;BME280;69067;51.930;4.492;2023-09-08T08:52:27;101659.47;;;29.27;44.46
79589;BME280;69067;51.930;4.492;2023-09-08T08:54:54;101644.75;;;29.22;44.25
79589;BME280;69067;51.930;4.492;2023-09-08T08:57:22;101649.56;;;29.26;44.30
79589;BME280;69067;51.930;4.492;2023-09-08T08:59:49;101647.28;;;29.23;44.12
79589;BME280;69067;51.930;4.492;2023-09-08T09:02:18;101640.53;;;29.19;44.00
79589;BME280;69067;51.930;4.492;2023-09-08T09:04:44;101654.59;;;29.29;44.88
79589;BME280;69067;51.930;4.492;2023-09-08T09:07:11;101644.75;;;29.22;44.45
79589;BME280;69067;51.930;4.492;2023-09-08T09:09:37;101655.66;;;29.28;43.99
79589;BME280;69067;51.930;4.492;2023-09-08T09:12:05;101645.38;;;29.24;44.03
79589;BME280;69067;51.930;4.492;2023-09-08T09:14:34;101645.97;;;29.26;43.96
79589;BME280;69067;51.930;4.492;2023-09-08T09:17:01;101629.81;;;29.18;44.43
79589;BME280;69067;51.930;4.492;2023-09-08T09:19:29;101645.59;;;29.22;44.63
79589;BME280;69067;51.930;4.492;2023-09-08T09:21:58;101638.66;;;29.20;44.08
79589;BME280;69067;51.930;4.492;2023-09-08T09:24:33;101641.78;;;29.23;43.79
79589;BME280;69067;51.930;4.492;2023-09-08T09:27:04;101652.91;;;29.28;44.47
79589;BME280;69067;51.930;4.492;2023-09-08T09:29:43;101632.94;;;29.21;44.06
79589;BME280;69067;51.930;4.492;2023-09-08T09:32:12;101648.88;;;29.31;44.47
79589;BME280;69067;51.930;4.492;2023-09-08T09:34:53;101653.53;;;29.30;44.00
79589;BME280;69067;51.930;4.492;2023-09-08T09:37:20;101642.78;;;29.29;44.16
79589;BME280;69067;51.930;4.492;2023-09-08T09:39:51;101650.97;;;29.35;44.14
79589;BME280;69067;51.930;4.492;2023-09-08T09:42:18;101659.81;;;29.38;43.74
79589;BME280;69067;51.930;4.492;2023-09-08T09:44:51;101644.25;;;29.31;44.26
79589;BME280;69067;51.930;4.492;2023-09-08T09:47:19;101648.00;;;29.37;44.05
79589;BME280;69067;51.930;4.492;2023-09-08T09:49:47;101639.59;;;29.32;44.40
79589;BME280;69067;51.930;4.492;2023-09-08T09:52:21;101632.03;;;29.27;43.94
79589;BME280;69067;51.930;4.492;2023-09-08T09:54:53;101629.06;;;29.29;43.85
79589;BME280;69067;51.930;4.492;2023-09-08T09:57:22;101632.19;;;29.32;44.20
79589;BME280;69067;51.930;4.492;2023-09-08T09:59:49;101627.38;;;29.28;43.77
79589;BME280;69067;51.930;4.492;2023-09-08T10:02:18;101641.25;;;29.33;44.20
79589;BME280;69067;51.930;4.492;2023-09-08T10:04:47;101643.94;;;29.40;44.20
79589;BME280;69067;51.930;4.492;2023-09-08T10:07:15;101651.28;;;29.46;43.98
79589;BME280;69067;51.930;4.492;2023-09-08T10:09:42;101633.28;;;29.31;44.35
79589;BME280;69067;51.930;4.492;2023-09-08T10:12:09;101653.03;;;29.40;44.40
79589;BME280;69067;51.930;4.492;2023-09-08T10:14:41;101649.69;;;29.38;44.12
79589;BME280;69067;51.930;4.492;2023-09-08T10:17:12;101647.78;;;29.39;44.02
79589;BME280;69067;51.930;4.492;2023-09-08T10:19:45;101657.22;;;29.43;43.89
79589;BME280;69067;51.930;4.492;2023-09-08T10:22:19;101638.75;;;29.31;43.72
79589;BME280;69067;51.930;4.492;2023-09-08T10:24:49;101648.38;;;29.41;43.78
79589;BME280;69067;51.930;4.492;2023-09-08T10:27:15;101635.75;;;29.33;43.87
79589;BME280;69067;51.930;4.492;2023-09-08T10:29:47;101630.53;;;29.31;44.57
79589;BME280;69067;51.930;4.492;2023-09-08T10:32:14;101646.69;;;29.40;43.78
79589;BME280;69067;51.930;4.492;2023-09-08T10:34:41;101645.41;;;29.42;44.14
79589;BME280;69067;51.930;4.492;2023-09-08T10:37:24;101644.97;;;29.45;44.03
79589;BME280;69067;51.930;4.492;2023-09-08T10:39:51;101641.81;;;29.42;44.16
79589;BME280;69067;51.930;4.492;2023-09-08T10:44:55;101646.41;;;29.48;43.80
79589;BME280;69067;51.930;4.492;2023-09-08T10:49:56;101640.91;;;29.48;44.11
79589;BME280;69067;51.930;4.492;2023-09-08T10:52:24;101633.75;;;29.47;44.22
79589;BME280;69067;51.930;4.492;2023-09-08T10:54:52;101638.63;;;29.45;43.79
79589;BME280;69067;51.930;4.492;2023-09-08T10:57:21;101648.69;;;29.51;43.99
79589;BME280;69067;51.930;4.492;2023-09-08T10:59:53;101637.09;;;29.49;44.08
79589;BME280;69067;51.930;4.492;2023-09-08T11:02:42;101642.16;;;29.52;44.37
79589;BME280;69067;51.930;4.492;2023-09-08T11:05:15;101632.31;;;29.44;44.30
79589;BME280;69067;51.930;4.492;2023-09-08T11:07:44;101652.44;;;29.56;44.00
79589;BME280;69067;51.930;4.492;2023-09-08T11:10:12;101649.69;;;29.56;44.36
79589;BME280;69067;51.930;4.492;2023-09-08T11:12:38;101634.50;;;29.54;43.75
79589;BME280;69067;51.930;4.492;2023-09-08T11:15:06;101645.25;;;29.55;44.07
79589;BME280;69067;51.930;4.492;2023-09-08T11:17:38;101657.47;;;29.59;43.96
79589;BME280;69067;51.930;4.492;2023-09-08T11:20:08;101638.56;;;29.51;44.77
79589;BME280;69067;51.930;4.492;2023-09-08T11:22:37;101657.47;;;29.59;43.76
79589;BME280;69067;51.930;4.492;2023-09-08T11:25:06;101660.81;;;29.61;43.82
79589;BME280;69067;51.930;4.492;2023-09-08T11:27:34;101651.16;;;29.59;44.05
79589;BME280;69067;51.930;4.492;2023-09-08T11:30:00;101638.00;;;29.61;43.91
79589;BME280;69067;51.930;4.492;2023-09-08T11:32:32;101622.94;;;29.52;44.16
79589;BME280;69067;51.930;4.492;2023-09-08T11:35:06;101630.69;;;29.55;44.00
79589;BME280;69067;51.930;4.492;2023-09-08T11:37:37;101626.25;;;29.54;44.01
79589;BME280;69067;51.930;4.492;2023-09-08T11:40:05;101636.94;;;29.62;44.28
79589;BME280;69067;51.930;4.492;2023-09-08T11:42:35;101619.09;;;29.53;43.98
79589;BME280;69067;51.930;4.492;2023-09-08T11:45:02;101629.78;;;29.61;43.76
79589;BME280;69067;51.930;4.492;2023-09-08T11:47:29;101641.50;;;29.68;43.11
79589;BME280;69067;51.930;4.492;2023-09-08T11:49:57;101632.06;;;29.64;43.84
79589;BME280;69067;51.930;4.492;2023-09-08T11:52:23;101631.44;;;29.62;43.27
79589;BME280;69067;51.930;4.492;2023-09-08T11:54:50;101637.25;;;29.72;43.87
79589;BME280;69067;51.930;4.492;2023-09-08T11:57:17;101626.09;;;29.67;43.13
79589;BME280;69067;51.930;4.492;2023-09-08T11:59:45;101621.72;;;29.66;43.75
79589;BME280;69067;51.930;4.492;2023-09-08T12:02:14;101617.41;;;29.70;43.48
79589;BME280;69067;51.930;4.492;2023-09-08T12:04:40;101619.09;;;29.71;42.92
79589;BME280;69067;51.930;4.492;2023-09-08T12:07:12;101619.63;;;29.80;43.77
79589;BME280;69067;51.930;4.492;2023-09-08T12:09:42;101633.34;;;29.80;43.27
79589;BME280;69067;51.930;4.492;2023-09-08T12:12:12;101630.59;;;29.80;43.98
79589;BME280;69067;51.930;4.492;2023-09-08T12:14:42;101626.53;;;29.82;44.84
79589;BME280;69067;51.930;4.492;2023-09-08T12:17:08;101620.47;;;29.80;44.84
79589;BME280;69067;51.930;4.492;2023-09-08T12:19:34;101617.09;;;29.78;45.57
79589;BME280;69067;51.930;4.492;2023-09-08T12:22:05;101629.47;;;29.87;45.77
79589;BME280;69067;51.930;4.492;2023-09-08T12:27:23;101614.97;;;29.80;45.23
79589;BME280;69067;51.930;4.492;2023-09-08T12:29:57;101622.88;;;29.88;45.27
79589;BME280;69067;51.930;4.492;2023-09-08T12:32:26;101632.56;;;29.91;45.50
79589;BME280;69067;51.930;4.492;2023-09-08T12:34:55;101610.91;;;29.83;44.74
79589;BME280;69067;51.930;4.492;2023-09-08T12:37:25;101610.69;;;29.84;44.95
79589;BME280;69067;51.930;4.492;2023-09-08T12:39:56;101613.72;;;29.94;44.86
79589;BME280;69067;51.930;4.492;2023-09-08T12:42:22;101601.38;;;29.85;44.36
79589;BME280;69067;51.930;4.492;2023-09-08T12:44:54;101619.63;;;29.98;44.52
79589;BME280;69067;51.930;4.492;2023-09-08T12:47:20;101622.13;;;29.99;44.43
79589;BME280;69067;51.930;4.492;2023-09-08T12:49:45;101608.84;;;29.96;44.35
79589;BME280;69067;51.930;4.492;2023-09-08T12:52:11;101608.00;;;29.96;44.02
79589;BME280;69067;51.930;4.492;2023-09-08T12:54:37;101611.59;;;29.96;43.46
79589;BME280;69067;51.930;4.492;2023-09-08T12:57:03;101611.59;;;29.96;43.10
79589;BME280;69067;51.930;4.492;2023-09-08T12:59:29;101615.31;;;30.02;42.80
79589;BME280;69067;51.930;4.492;2023-09-08T13:01:55;101597.69;;;29.91;42.99